CEF weather

Public forecast

Using degrees Fahrenheit for public forecast. Weather courtesy of forecast.io.

Current aviation weather report (METAR) for Westover ARB/Metropolitan Airport

Retrieved 2020/08/10 23:56 UTC (25 minutes ago):

KCEF 102356Z 30007KT 10SM SCT060 SCT130 BKN250 28/18 A2994 RMK AO2A LTG DSNT E SLP143 60000 T02800181 10335 20280 52005

Aviation forecast (TAF) for Westover ARB/Metropolitan Airport

Retrieved 2020/08/10 21:30 UTC (3 hours ago):

TAF TAF KCEF 102115Z 1021/1203 26009KT 9999 BKN055 BKN200 QNH2993INS TEMPO 1021/1023 29010G18KT 4800 TSRA BKN050CB BECMG 1023/1024 VRB06KT 9999 FEW050 SCT100 SCT250 QNH2993INS BECMG 1109/1110 VRB03KT 9999 SCT005 QNH2994INS BECMG 1113/1114 18009KT 9999 FEW100 QNH2995INS BECMG 1116/1117 22010G15KT 9999 SCT040 QNH2990INS TEMPO 1118/1122 25015G25KT 4800 TSRA BKN040CB TX34/1120Z TN22/1110Z LAST NO AMDS AFT 1103 NEXT 1113